createdAt,value
2019-01-06T00:05:40.177Z,73.95
2019-01-06T00:12:10.652Z,74.39
2019-01-06T00:18:41.222Z,74.88
2019-01-06T00:25:16.197Z,74.98
2019-01-06T00:31:33.064Z,75.10
2019-01-06T00:37:56.760Z,75.33
2019-01-06T00:44:27.418Z,75.55
2019-01-06T00:50:50.823Z,75.79
2019-01-06T00:57:31.198Z,75.92
2019-01-06T01:04:05.545Z,76.02
2019-01-06T01:10:27.031Z,76.15
2019-01-06T01:16:55.470Z,76.20
2019-01-06T01:23:18.827Z,76.18
2019-01-06T01:29:42.325Z,76.22
2019-01-06T01:36:07.614Z,76.23
2019-01-06T01:42:30.021Z,76.35
2019-01-06T01:49:12.918Z,76.31
2019-01-06T01:55:43.381Z,76.28
2019-01-06T02:02:14.245Z,76.48
2019-01-06T02:08:31.692Z,76.37
2019-01-06T02:14:56.371Z,76.34
2019-01-06T02:21:33.401Z,76.41
2019-01-06T02:27:58.366Z,76.39
2019-01-06T02:34:25.799Z,76.36
2019-01-06T02:40:53.730Z,76.35
2019-01-06T02:47:15.675Z,76.42
2019-01-06T02:53:43.141Z,76.44
2019-01-06T03:00:23.228Z,76.34
2019-01-06T03:06:46.828Z,76.30
2019-01-06T03:13:10.857Z,76.24
2019-01-06T03:19:36.098Z,76.29
2019-01-06T03:26:03.461Z,76.51
2019-01-06T03:32:40.387Z,76.48
2019-01-06T03:39:03.608Z,76.44
2019-01-06T03:45:31.081Z,76.56
2019-01-06T03:51:55.762Z,76.45
2019-01-06T03:58:12.694Z,76.23
2019-01-06T04:04:37.636Z,75.96
2019-01-06T04:11:01.183Z,75.86
2019-01-06T04:17:25.759Z,75.85
2019-01-06T04:23:59.258Z,75.80
2019-01-06T04:30:42.418Z,75.52
2019-01-06T04:37:02.429Z,75.51
2019-01-06T04:43:40.121Z,75.41
2019-01-06T04:50:07.550Z,75.23
2019-01-06T04:56:31.281Z,75.32
2019-01-06T05:02:55.827Z,75.51
2019-01-06T05:09:19.548Z,75.68
2019-01-06T05:15:41.183Z,75.99
2019-01-06T05:22:20.883Z,76.23
2019-01-06T05:29:01.102Z,76.40
2019-01-06T05:35:24.651Z,76.54
2019-01-06T05:41:48.418Z,76.42
2019-01-06T05:48:04.082Z,76.43
2019-01-06T05:54:29.030Z,76.32
2019-01-06T06:01:09.452Z,76.07
2019-01-06T06:07:43.091Z,75.70
2019-01-06T06:14:06.990Z,75.48
2019-01-06T06:20:46.706Z,75.69
2019-01-06T06:27:10.451Z,75.86
2019-01-06T06:33:38.001Z,75.64
2019-01-06T06:40:08.830Z,75.52
2019-01-06T06:46:36.653Z,75.44
2019-01-06T06:53:16.460Z,75.21
2019-01-06T06:59:50.109Z,75.23
2019-01-06T07:06:11.202Z,75.36
2019-01-06T07:12:43.042Z,75.47
2019-01-06T07:19:06.493Z,75.15
2019-01-06T07:25:32.366Z,75.11
2019-01-06T07:32:06.512Z,74.99
2019-01-06T07:38:30.715Z,74.93
2019-01-06T07:45:04.542Z,75.07
2019-01-06T07:51:27.871Z,75.05
2019-01-06T07:58:01.489Z,74.88
2019-01-06T08:04:26.221Z,74.99
2019-01-06T08:10:56.841Z,74.83
2019-01-06T08:17:21.426Z,74.81
2019-01-06T08:24:01.423Z,74.69
2019-01-06T08:30:29.808Z,74.82
2019-01-06T08:36:53.508Z,74.55
2019-01-06T08:43:33.331Z,74.63
2019-01-06T08:50:01.326Z,74.59
2019-01-06T08:56:37.395Z,74.71
2019-01-06T09:03:14.321Z,74.60
2019-01-06T09:09:45.956Z,74.61
2019-01-06T09:16:09.473Z,74.60
2019-01-06T09:22:32.781Z,74.65
2019-01-06T09:29:03.694Z,74.48
2019-01-06T09:35:28.912Z,74.35
2019-01-06T09:41:52.484Z,74.41
2019-01-06T09:48:26.026Z,74.51
2019-01-06T09:54:48.526Z,74.74
2019-01-06T10:01:13.100Z,74.65
2019-01-06T10:07:33.639Z,74.45
2019-01-06T10:14:10.691Z,74.10
2019-01-06T10:20:45.338Z,74.07
2019-01-06T10:27:15.876Z,73.95
2019-01-06T10:33:39.594Z,73.87
2019-01-06T10:40:10.434Z,73.56
2019-01-06T10:46:53.257Z,73.39
2019-01-06T10:53:25.184Z,73.57
2019-01-06T10:59:52.886Z,73.69
2019-01-06T11:06:16.957Z,73.81
2019-01-06T11:12:56.052Z,74.01
2019-01-06T11:19:33.038Z,73.79
2019-01-06T11:25:48.711Z,74.00
2019-01-06T11:32:12.330Z,73.71
2019-01-06T11:38:43.139Z,73.77
2019-01-06T11:45:10.731Z,73.67
2019-01-06T11:51:41.399Z,73.68
2019-01-06T11:58:15.173Z,73.53
2019-01-06T12:04:58.364Z,73.38
2019-01-06T12:11:41.629Z,73.11
2019-01-06T12:18:04.920Z,72.96
2019-01-06T12:24:41.640Z,72.99
2019-01-06T12:31:09.308Z,72.53
2019-01-06T12:37:34.166Z,72.16
2019-01-06T12:43:58.926Z,72.02
2019-01-06T12:50:27.079Z,72.25
2019-01-06T12:56:50.319Z,72.27
2019-01-06T13:03:13.638Z,72.68
2019-01-06T13:09:50.570Z,72.61
2019-01-06T13:16:24.650Z,72.89
2019-01-06T13:22:57.786Z,72.81
2019-01-06T13:29:22.637Z,72.56
2019-01-06T13:35:50.338Z,72.17
2019-01-06T13:42:13.742Z,71.59
2019-01-06T13:48:37.169Z,70.77
2019-01-06T13:55:01.842Z,70.44
2019-01-06T14:01:32.637Z,70.90
2019-01-06T14:07:55.956Z,71.02
2019-01-06T14:14:19.771Z,70.91
2019-01-06T14:20:43.812Z,70.97
2019-01-06T14:27:07.424Z,70.66
2019-01-06T14:33:43.707Z,70.61
2019-01-06T14:40:08.248Z,70.75
2019-01-06T14:46:31.665Z,70.57
2019-01-06T14:53:10.128Z,70.75
2019-01-06T14:59:37.666Z,70.90
2019-01-06T15:06:02.615Z,70.72
2019-01-06T15:12:36.296Z,70.29
2019-01-06T15:18:58.982Z,70.29
2019-01-06T15:25:42.437Z,70.06
2019-01-06T15:32:22.571Z,69.51
2019-01-06T15:38:53.529Z,69.46
2019-01-06T15:45:22.766Z,69.78
2019-01-06T15:51:59.374Z,69.81
2019-01-06T15:58:22.639Z,69.75
2019-01-06T16:04:56.358Z,69.93
2019-01-06T16:11:27.233Z,69.94
2019-01-06T16:17:57.562Z,69.85
2019-01-06T16:24:20.602Z,69.62
2019-01-06T16:30:41.515Z,69.81
2019-01-06T16:37:18.725Z,69.94
2019-01-06T16:43:41.705Z,70.18
2019-01-06T16:50:21.595Z,70.47
2019-01-06T16:57:06.776Z,70.63
2019-01-06T17:03:47.255Z,70.69
2019-01-06T17:10:10.865Z,70.61
2019-01-06T17:16:50.960Z,70.63
2019-01-06T17:23:14.159Z,70.62
2019-01-06T17:29:50.954Z,70.53
2019-01-06T17:36:14.598Z,70.35
2019-01-06T17:42:38.602Z,70.68
2019-01-06T17:49:02.263Z,70.83
2019-01-06T17:55:27.134Z,70.78
2019-01-06T18:02:04.389Z,70.74
2019-01-06T18:08:28.051Z,70.93
2019-01-06T18:14:54.991Z,70.78
2019-01-06T18:21:18.753Z,70.85
2019-01-06T18:27:43.914Z,70.74
2019-01-06T18:34:17.558Z,70.69
2019-01-06T18:40:41.845Z,70.61
2019-01-06T18:47:12.651Z,70.84
2019-01-06T18:53:43.648Z,70.96
2019-01-06T19:00:17.659Z,71.06
2019-01-06T19:06:40.831Z,71.20
2019-01-06T19:13:04.524Z,71.09
2019-01-06T19:19:42.482Z,71.07
2019-01-06T19:26:05.461Z,70.88
2019-01-06T19:32:40.546Z,70.89
2019-01-06T19:39:04.053Z,71.19
2019-01-06T19:45:40.890Z,71.28
2019-01-06T19:52:17.644Z,71.19
2019-01-06T19:58:40.468Z,71.14
2019-01-06T20:04:57.989Z,71.35
2019-01-06T20:11:22.648Z,71.29
2019-01-06T20:17:46.100Z,71.27
2019-01-06T20:24:25.909Z,71.20
2019-01-06T20:30:49.231Z,71.09
2019-01-06T20:37:16.918Z,71.07
2019-01-06T20:43:41.533Z,71.11
2019-01-06T20:50:03.169Z,70.97
2019-01-06T20:56:33.113Z,71.00
2019-01-06T21:03:00.928Z,70.98
2019-01-06T21:09:26.527Z,71.00
2019-01-06T21:15:54.520Z,70.96
2019-01-06T21:22:37.609Z,70.94
2019-01-06T21:29:00.301Z,70.96
2019-01-06T21:35:24.086Z,70.87
2019-01-06T21:41:58.479Z,70.77
2019-01-06T21:48:29.584Z,70.83
2019-01-06T21:54:52.804Z,70.70
2019-01-06T22:01:16.115Z,70.85
2019-01-06T22:07:39.425Z,70.76
2019-01-06T22:14:13.451Z,70.71
2019-01-06T22:20:50.239Z,70.96
2019-01-06T22:27:33.325Z,70.97
2019-01-06T22:33:57.992Z,71.04
2019-01-06T22:40:28.069Z,71.03
2019-01-06T22:46:58.760Z,70.98
2019-01-06T22:53:22.177Z,71.02
2019-01-06T22:59:56.017Z,70.94
2019-01-06T23:06:15.548Z,70.85
2019-01-06T23:12:37.169Z,70.91
2019-01-06T23:19:17.833Z,70.95
2019-01-06T23:25:41.289Z,70.99
2019-01-06T23:32:06.142Z,71.16
2019-01-06T23:38:43.120Z,71.15
2019-01-06T23:45:07.744Z,71.67
2019-01-06T23:51:41.999Z,71.77
2019-01-06T23:58:05.610Z,71.80
